Virtual United States Air Force

 METAR AND TAF INFORMATION
METAR FOR EGVA
ADDS - METARS form results

(1046 UTC 16 October 2019)
Data provider http://aviationweather.gov/metar/data/
 
METAR text: EGVA 160956Z AUTO 26011KT 9999 SCT018 SCT028 BKN036 13/10 A2956 RMK AO2 LTG DSNT SW RAB25E43DZB43E48 SLP014 P0000 T01320098 $
Conditions at: EGVA (FAIRFORD RAF , GB) observed 0956 UTC 16 October 2019
Temperature: 13.2°C (56°F)
Dewpoint: 9.8°C (50°F) [RH = 80%]
Pressure (altimeter): 29.56 inches Hg (1001.1 mb)
[Sea-level pressure: 1001.4 mb]
Winds: from the W (260 degrees) at 13 MPH (11 knots; 5.7 m/s)
Visibility: 6 or more miles (10+ km)
Ceiling: 3600 feet AGL
Clouds: scattered clouds at 1800 feet AGL
scattered clouds at 2800 feet AGL
broken clouds at 3600 feet AGL
Weather:
SOME DATA ABOVE MAY BE INACCURATE!!!
"$" is an indication the sensor requires maintenance

METAR text: EGVA 160948Z AUTO 26008KT 9999 SCT018 BKN036 13/10 A2956 RMK AO2 RAB25E43DZB43E48 SLP014 $
Conditions at: EGVA (FAIRFORD RAF , GB) observed 0948 UTC 16 October 2019
Temperature: 13.0°C (55°F)
Dewpoint: 10.0°C (50°F) [RH = 82%]
Pressure (altimeter): 29.56 inches Hg (1001.1 mb)
[Sea-level pressure: 1001.4 mb]
Winds: from the W (260 degrees) at 9 MPH (8 knots; 4.1 m/s)
Visibility: 6 or more miles (10+ km)
Ceiling: 3600 feet AGL
Clouds: scattered clouds at 1800 feet AGL
broken clouds at 3600 feet AGL
Weather:
SOME DATA ABOVE MAY BE INACCURATE!!!
"$" is an indication the sensor requires maintenance

 AIRPORT MAP

 RUNWAY INFORMATION
Runway 09 Runway length 9994 ft Runway width 200 ft
Runway elevation 286 ft Runway displaced threshold 0 ft Runway heading 88
Runway 27 Runway length 9994 ft Runway width 200 ft
Runway elevation 255 ft Runway displaced threshold 0 ft Runway heading 268

 AIRPORT FREQUENCIES
Type APP Name APP Frequency 119 MHZ
Type CAC Name CAC Frequency 124.275 MHZ
Type DIR Name BRIZE DIRE Frequency 133.75 MHZ
Type GND Name GND Frequency 234.25 MHZ
Type PMSV Name PMSV METRO Frequency 25.775 MHZ
Type PTD Name PDT Frequency 233.47 MHZ
Type TWR Name TWR Frequency 119.15 MHZ
Type TWR Name Frequency 338.22 MHZ

 AIRPORT NEAR NAVIGATION AIDS


Neither the Department of the Air Force, nor any other component of the Department of Defense or Federal Government has approved, endorsed, or authorized this promotion, activity, or organization. Virtual United States Air Force organization is in no way affiliated with the Department of Defense, Department of the Air Force, or any other federal or government entity. Virtual United States Air Force is a group of flight simulation enthusiasts with the common interest of promoting enjoyment and cameraderie through the simulation of military operations and procedures utilizing several flight simulation platforms.

Copyright © vUSAF, LLC // 2018 All Rights Reserved